sensor_id;sensor_type;location;lat;lon;timestamp;P1;durP1;ratioP1;P2;durP2;ratioP2
51523;SDS011;37610;51.790;21.590;2023-08-17T00:03:01;16.40;;;10.10;;
51523;SDS011;37610;51.790;21.590;2023-08-17T00:07:03;13.00;;;9.20;;
51523;SDS011;37610;51.790;21.590;2023-08-17T00:15:06;17.00;;;9.00;;
51523;SDS011;37610;51.790;21.590;2023-08-17T00:19:08;14.20;;;8.90;;
51523;SDS011;37610;51.790;21.590;2023-08-17T00:23:10;20.40;;;10.00;;
51523;SDS011;37610;51.790;21.590;2023-08-17T00:27:11;12.90;;;8.20;;
51523;SDS011;37610;51.790;21.590;2023-08-17T00:31:13;15.50;;;8.50;;
51523;SDS011;37610;51.790;21.590;2023-08-17T00:35:14;13.00;;;8.10;;
51523;SDS011;37610;51.790;21.590;2023-08-17T00:39:16;17.30;;;8.60;;
51523;SDS011;37610;51.790;21.590;2023-08-17T00:43:18;14.60;;;9.30;;
51523;SDS011;37610;51.790;21.590;2023-08-17T00:47:19;19.10;;;8.90;;
51523;SDS011;37610;51.790;21.590;2023-08-17T00:51:24;18.50;;;8.80;;
51523;SDS011;37610;51.790;21.590;2023-08-17T00:55:26;16.70;;;9.00;;
51523;SDS011;37610;51.790;21.590;2023-08-17T00:59:28;14.80;;;9.00;;
51523;SDS011;37610;51.790;21.590;2023-08-17T01:03:30;15.70;;;8.20;;
51523;SDS011;37610;51.790;21.590;2023-08-17T01:07:33;19.60;;;9.10;;
51523;SDS011;37610;51.790;21.590;2023-08-17T01:11:44;15.60;;;8.50;;
51523;SDS011;37610;51.790;21.590;2023-08-17T01:15:52;20.10;;;8.70;;
51523;SDS011;37610;51.790;21.590;2023-08-17T01:19:59;21.40;;;8.90;;
51523;SDS011;37610;51.790;21.590;2023-08-17T01:24:05;17.10;;;8.40;;
51523;SDS011;37610;51.790;21.590;2023-08-17T01:32:28;10.40;;;6.00;;
51523;SDS011;37610;51.790;21.590;2023-08-17T01:36:42;13.50;;;6.40;;
51523;SDS011;37610;51.790;21.590;2023-08-17T01:40:51;15.60;;;6.80;;
51523;SDS011;37610;51.790;21.590;2023-08-17T01:44:54;12.50;;;6.30;;
51523;SDS011;37610;51.790;21.590;2023-08-17T01:48:56;10.90;;;6.40;;
51523;SDS011;37610;51.790;21.590;2023-08-17T01:52:58;8.40;;;5.90;;
51523;SDS011;37610;51.790;21.590;2023-08-17T01:56:59;14.50;;;7.30;;
51523;SDS011;37610;51.790;21.590;2023-08-17T02:01:01;11.30;;;6.30;;
51523;SDS011;37610;51.790;21.590;2023-08-17T02:05:02;8.80;;;5.20;;
51523;SDS011;37610;51.790;21.590;2023-08-17T02:09:04;9.30;;;5.50;;
51523;SDS011;37610;51.790;21.590;2023-08-17T02:13:06;8.60;;;4.90;;
51523;SDS011;37610;51.790;21.590;2023-08-17T02:17:07;7.20;;;4.80;;
51523;SDS011;37610;51.790;21.590;2023-08-17T02:21:09;8.00;;;4.90;;
51523;SDS011;37610;51.790;21.590;2023-08-17T02:25:11;9.40;;;5.40;;
51523;SDS011;37610;51.790;21.590;2023-08-17T02:29:12;9.70;;;5.50;;
51523;SDS011;37610;51.790;21.590;2023-08-17T02:33:14;8.00;;;5.30;;
51523;SDS011;37610;51.790;21.590;2023-08-17T02:37:15;10.90;;;5.50;;
51523;SDS011;37610;51.790;21.590;2023-08-17T02:41:17;11.70;;;5.20;;
51523;SDS011;37610;51.790;21.590;2023-08-17T02:45:18;7.60;;;6.00;;
51523;SDS011;37610;51.790;21.590;2023-08-17T02:49:20;8.90;;;5.60;;
51523;SDS011;37610;51.790;21.590;2023-08-17T02:53:21;9.90;;;5.70;;
51523;SDS011;37610;51.790;21.590;2023-08-17T02:57:23;8.60;;;5.80;;
51523;SDS011;37610;51.790;21.590;2023-08-17T03:01:25;10.40;;;5.40;;
51523;SDS011;37610;51.790;21.590;2023-08-17T03:05:27;7.50;;;5.60;;
51523;SDS011;37610;51.790;21.590;2023-08-17T03:09:28;9.30;;;6.40;;
51523;SDS011;37610;51.790;21.590;2023-08-17T03:13:30;11.70;;;6.20;;
51523;SDS011;37610;51.790;21.590;2023-08-17T03:17:31;9.90;;;5.90;;
51523;SDS011;37610;51.790;21.590;2023-08-17T03:21:33;20.10;;;6.70;;
51523;SDS011;37610;51.790;21.590;2023-08-17T03:29:36;15.80;;;7.20;;
51523;SDS011;37610;51.790;21.590;2023-08-17T03:33:38;16.30;;;7.00;;
51523;SDS011;37610;51.790;21.590;2023-08-17T03:37:41;13.50;;;7.20;;
51523;SDS011;37610;51.790;21.590;2023-08-17T03:41:43;19.50;;;7.30;;
51523;SDS011;37610;51.790;21.590;2023-08-17T03:45:44;15.00;;;7.30;;
51523;SDS011;37610;51.790;21.590;2023-08-17T03:49:46;15.10;;;7.00;;
51523;SDS011;37610;51.790;21.590;2023-08-17T03:53:48;20.80;;;6.60;;
51523;SDS011;37610;51.790;21.590;2023-08-17T03:57:49;12.80;;;7.30;;
51523;SDS011;37610;51.790;21.590;2023-08-17T04:01:51;16.50;;;7.20;;
51523;SDS011;37610;51.790;21.590;2023-08-17T04:05:53;16.80;;;7.10;;
51523;SDS011;37610;51.790;21.590;2023-08-17T04:09:54;17.40;;;7.60;;
51523;SDS011;37610;51.790;21.590;2023-08-17T04:13:55;23.70;;;7.60;;
51523;SDS011;37610;51.790;21.590;2023-08-17T04:17:57;13.60;;;7.10;;
51523;SDS011;37610;51.790;21.590;2023-08-17T04:21:58;19.70;;;7.80;;
51523;SDS011;37610;51.790;21.590;2023-08-17T04:26:00;24.10;;;7.30;;
51523;SDS011;37610;51.790;21.590;2023-08-17T04:30:01;16.00;;;7.20;;
51523;SDS011;37610;51.790;21.590;2023-08-17T04:34:04;14.30;;;7.20;;
51523;SDS011;37610;51.790;21.590;2023-08-17T04:38:06;285.00;;;21.40;;
51523;SDS011;37610;51.790;21.590;2023-08-17T04:42:07;37.00;;;13.80;;
51523;SDS011;37610;51.790;21.590;2023-08-17T04:46:09;22.90;;;12.40;;
51523;SDS011;37610;51.790;21.590;2023-08-17T04:50:10;16.10;;;8.10;;
51523;SDS011;37610;51.790;21.590;2023-08-17T04:54:17;12.20;;;6.80;;
51523;SDS011;37610;51.790;21.590;2023-08-17T04:58:18;19.00;;;7.20;;
51523;SDS011;37610;51.790;21.590;2023-08-17T05:02:20;21.20;;;7.30;;
51523;SDS011;37610;51.790;21.590;2023-08-17T05:06:21;12.10;;;7.20;;
51523;SDS011;37610;51.790;21.590;2023-08-17T05:10:23;12.80;;;6.70;;
51523;SDS011;37610;51.790;21.590;2023-08-17T05:14:24;13.10;;;7.10;;
51523;SDS011;37610;51.790;21.590;2023-08-17T05:18:26;11.90;;;6.40;;
51523;SDS011;37610;51.790;21.590;2023-08-17T05:22:27;12.90;;;6.40;;
51523;SDS011;37610;51.790;21.590;2023-08-17T05:26:29;34.20;;;7.30;;
51523;SDS011;37610;51.790;21.590;2023-08-17T05:30:30;29.70;;;6.90;;
51523;SDS011;37610;51.790;21.590;2023-08-17T05:34:32;10.00;;;5.60;;
51523;SDS011;37610;51.790;21.590;2023-08-17T05:38:33;14.70;;;6.00;;
51523;SDS011;37610;51.790;21.590;2023-08-17T05:42:35;11.20;;;5.80;;
51523;SDS011;37610;51.790;21.590;2023-08-17T05:46:36;13.30;;;5.90;;
51523;SDS011;37610;51.790;21.590;2023-08-17T05:50:40;14.20;;;6.50;;
51523;SDS011;37610;51.790;21.590;2023-08-17T05:54:43;9.00;;;5.90;;
51523;SDS011;37610;51.790;21.590;2023-08-17T05:58:44;9.10;;;5.40;;
51523;SDS011;37610;51.790;21.590;2023-08-17T06:02:45;10.00;;;5.60;;
51523;SDS011;37610;51.790;21.590;2023-08-17T06:06:51;24.90;;;6.40;;
51523;SDS011;37610;51.790;21.590;2023-08-17T06:10:52;11.80;;;5.80;;
51523;SDS011;37610;51.790;21.590;2023-08-17T06:14:54;31.10;;;6.70;;
51523;SDS011;37610;51.790;21.590;2023-08-17T06:18:55;38.80;;;7.00;;
51523;SDS011;37610;51.790;21.590;2023-08-17T06:22:57;16.60;;;5.90;;
51523;SDS011;37610;51.790;21.590;2023-08-17T06:26:59;10.70;;;5.50;;
51523;SDS011;37610;51.790;21.590;2023-08-17T06:31:00;11.20;;;5.40;;
51523;SDS011;37610;51.790;21.590;2023-08-17T06:35:02;11.30;;;5.90;;
51523;SDS011;37610;51.790;21.590;2023-08-17T06:39:04;7.50;;;5.90;;
51523;SDS011;37610;51.790;21.590;2023-08-17T06:43:05;10.00;;;5.20;;
51523;SDS011;37610;51.790;21.590;2023-08-17T06:47:07;9.50;;;5.80;;
51523;SDS011;37610;51.790;21.590;2023-08-17T06:51:08;11.90;;;5.80;;
51523;SDS011;37610;51.790;21.590;2023-08-17T06:55:10;8.40;;;5.30;;
51523;SDS011;37610;51.790;21.590;2023-08-17T06:59:11;6.70;;;5.10;;
51523;SDS011;37610;51.790;21.590;2023-08-17T07:03:13;7.90;;;5.00;;
51523;SDS011;37610;51.790;21.590;2023-08-17T07:07:14;7.70;;;5.30;;
51523;SDS011;37610;51.790;21.590;2023-08-17T07:11:19;6.80;;;4.80;;
51523;SDS011;37610;51.790;21.590;2023-08-17T07:15:20;10.00;;;5.10;;
51523;SDS011;37610;51.790;21.590;2023-08-17T07:19:22;8.10;;;4.90;;
51523;SDS011;37610;51.790;21.590;2023-08-17T07:23:24;11.80;;;5.10;;
51523;SDS011;37610;51.790;21.590;2023-08-17T07:27:25;38.90;;;6.30;;
51523;SDS011;37610;51.790;21.590;2023-08-17T07:35:29;135.90;;;10.90;;
51523;SDS011;37610;51.790;21.590;2023-08-17T07:39:30;8.80;;;4.70;;
51523;SDS011;37610;51.790;21.590;2023-08-17T07:43:32;9.90;;;4.10;;
51523;SDS011;37610;51.790;21.590;2023-08-17T07:47:34;9.20;;;4.20;;
51523;SDS011;37610;51.790;21.590;2023-08-17T07:51:37;9.20;;;4.20;;
51523;SDS011;37610;51.790;21.590;2023-08-17T07:55:38;16.30;;;4.50;;
51523;SDS011;37610;51.790;21.590;2023-08-17T08:03:42;7.90;;;4.10;;
51523;SDS011;37610;51.790;21.590;2023-08-17T08:07:43;7.40;;;4.60;;
51523;SDS011;37610;51.790;21.590;2023-08-17T08:11:45;6.10;;;4.30;;
51523;SDS011;37610;51.790;21.590;2023-08-17T08:15:46;7.70;;;4.50;;
51523;SDS011;37610;51.790;21.590;2023-08-17T08:19:48;7.20;;;4.10;;
51523;SDS011;37610;51.790;21.590;2023-08-17T08:23:52;7.20;;;4.00;;
51523;SDS011;37610;51.790;21.590;2023-08-17T08:27:53;9.90;;;4.10;;
51523;SDS011;37610;51.790;21.590;2023-08-17T08:31:55;8.10;;;3.80;;
51523;SDS011;37610;51.790;21.590;2023-08-17T08:35:58;6.40;;;3.60;;
51523;SDS011;37610;51.790;21.590;2023-08-17T08:39:59;5.10;;;3.70;;
51523;SDS011;37610;51.790;21.590;2023-08-17T08:44:01;9.10;;;4.00;;
51523;SDS011;37610;51.790;21.590;2023-08-17T08:48:03;7.10;;;3.90;;
51523;SDS011;37610;51.790;21.590;2023-08-17T08:52:11;9.10;;;3.50;;
51523;SDS011;37610;51.790;21.590;2023-08-17T08:56:16;12.00;;;4.00;;
51523;SDS011;37610;51.790;21.590;2023-08-17T09:00:21;7.10;;;3.40;;
51523;SDS011;37610;51.790;21.590;2023-08-17T09:04:24;12.20;;;3.90;;
51523;SDS011;37610;51.790;21.590;2023-08-17T09:08:27;25.60;;;4.70;;
51523;SDS011;37610;51.790;21.590;2023-08-17T09:12:30;6.90;;;3.40;;
51523;SDS011;37610;51.790;21.590;2023-08-17T09:16:32;7.80;;;3.90;;
51523;SDS011;37610;51.790;21.590;2023-08-17T09:20:35;5.20;;;3.20;;
51523;SDS011;37610;51.790;21.590;2023-08-17T09:24:46;8.00;;;3.90;;
51523;SDS011;37610;51.790;21.590;2023-08-17T09:28:49;11.20;;;3.50;;
51523;SDS011;37610;51.790;21.590;2023-08-17T09:32:51;7.80;;;3.40;;
51523;SDS011;37610;51.790;21.590;2023-08-17T09:36:52;12.20;;;2.90;;
51523;SDS011;37610;51.790;21.590;2023-08-17T09:40:54;5.30;;;2.50;;
51523;SDS011;37610;51.790;21.590;2023-08-17T09:44:57;10.10;;;2.70;;
51523;SDS011;37610;51.790;21.590;2023-08-17T09:48:59;7.40;;;2.70;;
51523;SDS011;37610;51.790;21.590;2023-08-17T09:53:05;6.00;;;2.90;;
51523;SDS011;37610;51.790;21.590;2023-08-17T09:57:07;4.90;;;2.60;;
51523;SDS011;37610;51.790;21.590;2023-08-17T10:01:10;5.30;;;2.60;;
51523;SDS011;37610;51.790;21.590;2023-08-17T10:05:13;4.50;;;2.60;;
51523;SDS011;37610;51.790;21.590;2023-08-17T10:09:21;6.20;;;2.30;;
51523;SDS011;37610;51.790;21.590;2023-08-17T10:22:06;4.10;;;2.10;;
51523;SDS011;37610;51.790;21.590;2023-08-17T10:26:13;13.20;;;2.80;;
51523;SDS011;37610;51.790;21.590;2023-08-17T10:30:16;6.20;;;2.20;;
51523;SDS011;37610;51.790;21.590;2023-08-17T10:38:19;8.00;;;2.30;;
51523;SDS011;37610;51.790;21.590;2023-08-17T10:42:31;4.50;;;1.90;;
51523;SDS011;37610;51.790;21.590;2023-08-17T10:46:34;2.70;;;1.70;;
51523;SDS011;37610;51.790;21.590;2023-08-17T10:50:38;5.30;;;1.80;;
51523;SDS011;37610;51.790;21.590;2023-08-17T10:54:41;5.80;;;2.10;;
51523;SDS011;37610;51.790;21.590;2023-08-17T10:58:43;6.50;;;2.10;;
51523;SDS011;37610;51.790;21.590;2023-08-17T11:02:51;18.40;;;3.20;;
51523;SDS011;37610;51.790;21.590;2023-08-17T11:07:08;8.40;;;2.60;;
51523;SDS011;37610;51.790;21.590;2023-08-17T11:11:17;18.90;;;3.50;;
51523;SDS011;37610;51.790;21.590;2023-08-17T11:15:21;10.60;;;2.70;;
51523;SDS011;37610;51.790;21.590;2023-08-17T11:19:23;5.40;;;2.30;;
51523;SDS011;37610;51.790;21.590;2023-08-17T11:23:24;17.40;;;3.40;;
51523;SDS011;37610;51.790;21.590;2023-08-17T11:27:30;4.60;;;2.50;;
51523;SDS011;37610;51.790;21.590;2023-08-17T11:31:32;8.30;;;2.30;;
51523;SDS011;37610;51.790;21.590;2023-08-17T11:35:34;8.00;;;2.70;;
51523;SDS011;37610;51.790;21.590;2023-08-17T11:39:36;6.90;;;2.40;;
51523;SDS011;37610;51.790;21.590;2023-08-17T11:43:37;7.10;;;2.60;;
51523;SDS011;37610;51.790;21.590;2023-08-17T11:47:39;72.40;;;6.60;;
51523;SDS011;37610;51.790;21.590;2023-08-17T11:51:44;10.10;;;2.80;;
51523;SDS011;37610;51.790;21.590;2023-08-17T11:55:46;3.40;;;2.10;;
51523;SDS011;37610;51.790;21.590;2023-08-17T11:59:48;11.30;;;2.80;;
51523;SDS011;37610;51.790;21.590;2023-08-17T12:03:50;9.00;;;2.80;;
51523;SDS011;37610;51.790;21.590;2023-08-17T12:07:52;8.20;;;2.50;;
51523;SDS011;37610;51.790;21.590;2023-08-17T12:12:00;5.90;;;2.30;;
51523;SDS011;37610;51.790;21.590;2023-08-17T12:16:02;4.80;;;2.50;;
51523;SDS011;37610;51.790;21.590;2023-08-17T12:20:04;7.80;;;2.50;;
51523;SDS011;37610;51.790;21.590;2023-08-17T12:24:06;7.00;;;2.30;;
51523;SDS011;37610;51.790;21.590;2023-08-17T12:28:13;6.60;;;2.20;;
51523;SDS011;37610;51.790;21.590;2023-08-17T12:32:15;13.50;;;3.00;;
51523;SDS011;37610;51.790;21.590;2023-08-17T12:36:18;6.80;;;3.10;;
51523;SDS011;37610;51.790;21.590;2023-08-17T12:40:21;6.80;;;3.50;;
51523;SDS011;37610;51.790;21.590;2023-08-17T12:44:23;13.70;;;3.50;;
51523;SDS011;37610;51.790;21.590;2023-08-17T12:48:25;12.20;;;5.30;;
51523;SDS011;37610;51.790;21.590;2023-08-17T12:52:27;12.90;;;5.30;;
51523;SDS011;37610;51.790;21.590;2023-08-17T12:56:29;20.90;;;4.00;;
51523;SDS011;37610;51.790;21.590;2023-08-17T13:00:30;13.40;;;5.90;;
51523;SDS011;37610;51.790;21.590;2023-08-17T13:04:32;7.60;;;3.80;;
51523;SDS011;37610;51.790;21.590;2023-08-17T13:08:33;10.30;;;3.40;;
51523;SDS011;37610;51.790;21.590;2023-08-17T13:12:35;5.90;;;2.80;;
51523;SDS011;37610;51.790;21.590;2023-08-17T13:16:36;6.40;;;2.40;;
51523;SDS011;37610;51.790;21.590;2023-08-17T13:20:38;7.90;;;2.60;;
51523;SDS011;37610;51.790;21.590;2023-08-17T13:24:41;4.80;;;2.60;;
51523;SDS011;37610;51.790;21.590;2023-08-17T13:28:43;4.30;;;2.20;;
51523;SDS011;37610;51.790;21.590;2023-08-17T13:32:44;5.80;;;2.70;;
51523;SDS011;37610;51.790;21.590;2023-08-17T13:36:46;8.40;;;2.80;;
51523;SDS011;37610;51.790;21.590;2023-08-17T13:40:48;6.90;;;2.60;;
51523;SDS011;37610;51.790;21.590;2023-08-17T13:44:49;6.90;;;2.50;;
51523;SDS011;37610;51.790;21.590;2023-08-17T13:48:51;10.40;;;5.20;;
51523;SDS011;37610;51.790;21.590;2023-08-17T13:52:55;10.50;;;5.30;;
51523;SDS011;37610;51.790;21.590;2023-08-17T13:56:56;8.60;;;4.70;;
51523;SDS011;37610;51.790;21.590;2023-08-17T14:00:58;10.50;;;4.30;;
51523;SDS011;37610;51.790;21.590;2023-08-17T14:04:59;9.00;;;5.30;;
51523;SDS011;37610;51.790;21.590;2023-08-17T14:09:01;6.50;;;2.70;;
51523;SDS011;37610;51.790;21.590;2023-08-17T14:13:04;7.90;;;2.90;;
51523;SDS011;37610;51.790;21.590;2023-08-17T14:17:06;11.00;;;2.40;;
51523;SDS011;37610;51.790;21.590;2023-08-17T14:21:07;8.70;;;2.70;;
51523;SDS011;37610;51.790;21.590;2023-08-17T14:25:09;10.40;;;2.90;;
51523;SDS011;37610;51.790;21.590;2023-08-17T14:29:10;5.60;;;2.40;;
51523;SDS011;37610;51.790;21.590;2023-08-17T14:33:12;7.70;;;2.50;;
51523;SDS011;37610;51.790;21.590;2023-08-17T14:37:16;9.70;;;3.00;;
51523;SDS011;37610;51.790;21.590;2023-08-17T14:41:18;24.60;;;3.40;;
51523;SDS011;37610;51.790;21.590;2023-08-17T14:45:19;9.70;;;2.50;;
51523;SDS011;37610;51.790;21.590;2023-08-17T14:49:21;26.90;;;3.40;;
51523;SDS011;37610;51.790;21.590;2023-08-17T14:53:22;7.10;;;2.70;;
51523;SDS011;37610;51.790;21.590;2023-08-17T14:57:24;5.10;;;2.50;;
51523;SDS011;37610;51.790;21.590;2023-08-17T15:01:25;10.70;;;2.90;;
51523;SDS011;37610;51.790;21.590;2023-08-17T15:05:27;7.20;;;2.80;;
51523;SDS011;37610;51.790;21.590;2023-08-17T15:09:29;12.20;;;3.30;;
51523;SDS011;37610;51.790;21.590;2023-08-17T15:13:30;19.30;;;3.80;;
51523;SDS011;37610;51.790;21.590;2023-08-17T15:17:32;19.50;;;4.40;;
51523;SDS011;37610;51.790;21.590;2023-08-17T15:21:34;16.50;;;9.50;;
51523;SDS011;37610;51.790;21.590;2023-08-17T15:25:35;13.40;;;6.90;;
51523;SDS011;37610;51.790;21.590;2023-08-17T15:29:37;12.60;;;3.80;;
51523;SDS011;37610;51.790;21.590;2023-08-17T15:33:39;35.50;;;4.40;;
51523;SDS011;37610;51.790;21.590;2023-08-17T15:37:41;12.70;;;3.20;;
51523;SDS011;37610;51.790;21.590;2023-08-17T15:41:42;9.40;;;2.70;;
51523;SDS011;37610;51.790;21.590;2023-08-17T15:45:44;11.30;;;3.20;;
51523;SDS011;37610;51.790;21.590;2023-08-17T15:49:45;12.10;;;3.00;;
51523;SDS011;37610;51.790;21.590;2023-08-17T15:53:47;7.70;;;2.70;;
51523;SDS011;37610;51.790;21.590;2023-08-17T15:57:48;11.70;;;2.80;;
51523;SDS011;37610;51.790;21.590;2023-08-17T16:01:50;11.80;;;3.10;;
51523;SDS011;37610;51.790;21.590;2023-08-17T16:05:51;14.90;;;3.50;;
51523;SDS011;37610;51.790;21.590;2023-08-17T16:09:53;8.50;;;2.80;;
51523;SDS011;37610;51.790;21.590;2023-08-17T16:13:54;11.40;;;2.70;;
51523;SDS011;37610;51.790;21.590;2023-08-17T16:17:56;14.40;;;3.20;;
51523;SDS011;37610;51.790;21.590;2023-08-17T16:21:58;7.90;;;3.20;;
51523;SDS011;37610;51.790;21.590;2023-08-17T16:25:59;11.40;;;3.50;;
51523;SDS011;37610;51.790;21.590;2023-08-17T16:30:01;164.80;;;13.50;;
51523;SDS011;37610;51.790;21.590;2023-08-17T16:34:03;20.60;;;5.30;;
51523;SDS011;37610;51.790;21.590;2023-08-17T16:38:05;11.10;;;4.10;;
51523;SDS011;37610;51.790;21.590;2023-08-17T16:42:07;41.20;;;6.60;;
51523;SDS011;37610;51.790;21.590;2023-08-17T16:46:08;130.50;;;12.20;;
51523;SDS011;37610;51.790;21.590;2023-08-17T16:50:10;52.00;;;9.00;;
51523;SDS011;37610;51.790;21.590;2023-08-17T16:54:12;20.00;;;6.70;;
51523;SDS011;37610;51.790;21.590;2023-08-17T16:58:14;14.10;;;5.60;;
51523;SDS011;37610;51.790;21.590;2023-08-17T17:02:15;15.00;;;6.00;;
51523;SDS011;37610;51.790;21.590;2023-08-17T17:06:18;14.30;;;6.10;;
51523;SDS011;37610;51.790;21.590;2023-08-17T17:10:19;11.90;;;4.80;;
51523;SDS011;37610;51.790;21.590;2023-08-17T17:14:21;25.90;;;8.60;;
51523;SDS011;37610;51.790;21.590;2023-08-17T17:18:23;24.70;;;9.30;;
51523;SDS011;37610;51.790;21.590;2023-08-17T17:22:25;12.40;;;5.70;;
51523;SDS011;37610;51.790;21.590;2023-08-17T17:26:27;14.80;;;5.70;;
51523;SDS011;37610;51.790;21.590;2023-08-17T17:30:29;12.50;;;5.30;;
51523;SDS011;37610;51.790;21.590;2023-08-17T17:38:33;6.80;;;4.90;;
51523;SDS011;37610;51.790;21.590;2023-08-17T17:42:34;11.10;;;4.70;;
51523;SDS011;37610;51.790;21.590;2023-08-17T17:46:36;14.60;;;5.30;;
51523;SDS011;37610;51.790;21.590;2023-08-17T17:50:37;10.80;;;5.40;;
51523;SDS011;37610;51.790;21.590;2023-08-17T17:54:39;17.10;;;10.10;;
51523;SDS011;37610;51.790;21.590;2023-08-17T17:58:41;20.30;;;10.30;;
51523;SDS011;37610;51.790;21.590;2023-08-17T18:02:42;18.60;;;10.50;;
51523;SDS011;37610;51.790;21.590;2023-08-17T18:06:44;16.10;;;9.30;;
51523;SDS011;37610;51.790;21.590;2023-08-17T18:10:45;21.60;;;9.50;;
51523;SDS011;37610;51.790;21.590;2023-08-17T18:14:47;16.80;;;9.30;;
51523;SDS011;37610;51.790;21.590;2023-08-17T18:18:49;18.30;;;9.50;;
51523;SDS011;37610;51.790;21.590;2023-08-17T18:22:51;17.40;;;9.20;;
51523;SDS011;37610;51.790;21.590;2023-08-17T18:26:53;20.50;;;9.40;;
51523;SDS011;37610;51.790;21.590;2023-08-17T18:30:55;15.70;;;8.60;;
51523;SDS011;37610;51.790;21.590;2023-08-17T18:34:57;16.40;;;7.80;;
51523;SDS011;37610;51.790;21.590;2023-08-17T18:38:58;17.50;;;7.90;;
51523;SDS011;37610;51.790;21.590;2023-08-17T18:43:00;14.70;;;8.30;;
51523;SDS011;37610;51.790;21.590;2023-08-17T18:47:02;12.70;;;8.00;;
51523;SDS011;37610;51.790;21.590;2023-08-17T18:51:03;20.30;;;10.50;;
51523;SDS011;37610;51.790;21.590;2023-08-17T18:55:05;19.60;;;12.80;;
51523;SDS011;37610;51.790;21.590;2023-08-17T18:59:12;24.90;;;12.70;;
51523;SDS011;37610;51.790;21.590;2023-08-17T19:03:13;21.20;;;12.30;;
51523;SDS011;37610;51.790;21.590;2023-08-17T19:07:15;23.60;;;12.90;;
51523;SDS011;37610;51.790;21.590;2023-08-17T19:11:17;24.90;;;12.70;;
51523;SDS011;37610;51.790;21.590;2023-08-17T19:15:19;37.60;;;21.50;;
51523;SDS011;37610;51.790;21.590;2023-08-17T19:19:20;22.60;;;12.70;;
51523;SDS011;37610;51.790;21.590;2023-08-17T19:23:22;22.10;;;10.90;;
51523;SDS011;37610;51.790;21.590;2023-08-17T19:27:23;18.60;;;11.10;;
51523;SDS011;37610;51.790;21.590;2023-08-17T19:31:25;17.40;;;10.00;;
51523;SDS011;37610;51.790;21.590;2023-08-17T19:35:26;19.10;;;9.40;;
51523;SDS011;37610;51.790;21.590;2023-08-17T19:39:28;25.80;;;9.40;;
51523;SDS011;37610;51.790;21.590;2023-08-17T19:43:30;14.30;;;9.50;;
51523;SDS011;37610;51.790;21.590;2023-08-17T19:47:31;25.20;;;10.00;;
51523;SDS011;37610;51.790;21.590;2023-08-17T19:51:33;17.60;;;10.00;;
51523;SDS011;37610;51.790;21.590;2023-08-17T19:59:36;20.60;;;12.30;;
51523;SDS011;37610;51.790;21.590;2023-08-17T20:03:38;21.10;;;12.00;;
51523;SDS011;37610;51.790;21.590;2023-08-17T20:11:41;24.60;;;11.50;;
51523;SDS011;37610;51.790;21.590;2023-08-17T20:15:42;34.20;;;12.20;;
51523;SDS011;37610;51.790;21.590;2023-08-17T20:19:44;30.10;;;12.00;;
51523;SDS011;37610;51.790;21.590;2023-08-17T20:23:59;33.90;;;12.10;;
51523;SDS011;37610;51.790;21.590;2023-08-17T20:28:10;29.20;;;12.70;;
51523;SDS011;37610;51.790;21.590;2023-08-17T20:32:12;62.90;;;12.00;;
51523;SDS011;37610;51.790;21.590;2023-08-17T20:36:13;26.60;;;10.20;;
51523;SDS011;37610;51.790;21.590;2023-08-17T20:40:15;20.00;;;9.90;;
51523;SDS011;37610;51.790;21.590;2023-08-17T20:44:17;20.40;;;9.80;;
51523;SDS011;37610;51.790;21.590;2023-08-17T20:48:19;22.80;;;9.30;;
51523;SDS011;37610;51.790;21.590;2023-08-17T20:52:20;18.10;;;12.10;;
51523;SDS011;37610;51.790;21.590;2023-08-17T20:56:22;23.30;;;9.70;;
51523;SDS011;37610;51.790;21.590;2023-08-17T21:00:23;20.80;;;10.30;;
51523;SDS011;37610;51.790;21.590;2023-08-17T21:04:26;16.00;;;9.40;;
51523;SDS011;37610;51.790;21.590;2023-08-17T21:08:27;26.60;;;11.50;;
51523;SDS011;37610;51.790;21.590;2023-08-17T21:12:29;16.80;;;10.00;;
51523;SDS011;37610;51.790;21.590;2023-08-17T21:16:31;20.30;;;10.70;;
51523;SDS011;37610;51.790;21.590;2023-08-17T21:20:32;19.60;;;10.30;;
51523;SDS011;37610;51.790;21.590;2023-08-17T21:28:36;15.10;;;9.70;;
51523;SDS011;37610;51.790;21.590;2023-08-17T21:32:38;21.80;;;9.80;;
51523;SDS011;37610;51.790;21.590;2023-08-17T21:36:39;16.40;;;9.70;;
51523;SDS011;37610;51.790;21.590;2023-08-17T21:40:41;16.70;;;9.10;;
51523;SDS011;37610;51.790;21.590;2023-08-17T21:44:42;16.30;;;9.40;;
51523;SDS011;37610;51.790;21.590;2023-08-17T21:48:44;15.00;;;9.10;;
51523;SDS011;37610;51.790;21.590;2023-08-17T21:52:45;17.10;;;9.00;;
51523;SDS011;37610;51.790;21.590;2023-08-17T21:56:47;18.00;;;9.80;;
51523;SDS011;37610;51.790;21.590;2023-08-17T22:00:48;19.00;;;9.90;;
51523;SDS011;37610;51.790;21.590;2023-08-17T22:04:50;15.50;;;9.20;;
51523;SDS011;37610;51.790;21.590;2023-08-17T22:08:52;19.00;;;10.20;;
51523;SDS011;37610;51.790;21.590;2023-08-17T22:12:53;18.10;;;9.50;;
51523;SDS011;37610;51.790;21.590;2023-08-17T22:16:55;16.00;;;9.40;;
51523;SDS011;37610;51.790;21.590;2023-08-17T22:20:57;15.30;;;8.80;;
51523;SDS011;37610;51.790;21.590;2023-08-17T22:24:59;22.00;;;9.40;;
51523;SDS011;37610;51.790;21.590;2023-08-17T22:29:00;14.70;;;8.80;;
51523;SDS011;37610;51.790;21.590;2023-08-17T22:33:02;16.30;;;8.50;;
51523;SDS011;37610;51.790;21.590;2023-08-17T22:37:04;14.00;;;9.20;;
51523;SDS011;37610;51.790;21.590;2023-08-17T22:41:06;18.30;;;9.30;;
51523;SDS011;37610;51.790;21.590;2023-08-17T22:45:07;16.60;;;8.20;;
51523;SDS011;37610;51.790;21.590;2023-08-17T22:53:11;21.80;;;9.60;;
51523;SDS011;37610;51.790;21.590;2023-08-17T22:57:13;19.90;;;10.30;;
51523;SDS011;37610;51.790;21.590;2023-08-17T23:01:15;20.10;;;9.10;;
51523;SDS011;37610;51.790;21.590;2023-08-17T23:05:17;23.10;;;10.70;;
51523;SDS011;37610;51.790;21.590;2023-08-17T23:09:18;19.30;;;10.00;;
51523;SDS011;37610;51.790;21.590;2023-08-17T23:13:20;18.80;;;10.50;;
51523;SDS011;37610;51.790;21.590;2023-08-17T23:17:22;17.00;;;9.50;;
51523;SDS011;37610;51.790;21.590;2023-08-17T23:21:23;19.60;;;10.00;;
51523;SDS011;37610;51.790;21.590;2023-08-17T23:25:25;21.30;;;10.40;;
51523;SDS011;37610;51.790;21.590;2023-08-17T23:29:26;14.90;;;9.70;;
51523;SDS011;37610;51.790;21.590;2023-08-17T23:33:28;16.80;;;10.40;;
51523;SDS011;37610;51.790;21.590;2023-08-17T23:37:30;14.50;;;9.10;;
51523;SDS011;37610;51.790;21.590;2023-08-17T23:41:31;15.30;;;8.50;;
51523;SDS011;37610;51.790;21.590;2023-08-17T23:45:33;16.60;;;8.80;;
51523;SDS011;37610;51.790;21.590;2023-08-17T23:49:34;14.10;;;8.40;;
51523;SDS011;37610;51.790;21.590;2023-08-17T23:53:36;15.30;;;7.70;;
51523;SDS011;37610;51.790;21.590;2023-08-17T23:57:38;16.30;;;8.10;;
